createdAt,value
2023-02-07T00:01:21.140Z,79.11
2023-02-07T00:03:48.448Z,79.08
2023-02-07T00:06:21.750Z,79.21
2023-02-07T00:08:49.331Z,78.51
2023-02-07T00:11:19.490Z,79.16
2023-02-07T00:13:48.145Z,79.47
2023-02-07T00:16:15.374Z,78.71
2023-02-07T00:18:42.224Z,79.42
2023-02-07T00:21:15.725Z,78.49
2023-02-07T00:23:43.480Z,78.86
2023-02-07T00:26:11.283Z,79.68
2023-02-07T00:28:38.873Z,79.08
2023-02-07T00:31:08.345Z,79.22
2023-02-07T00:33:37.034Z,79.96
2023-02-07T00:38:34.479Z,80.52
2023-02-07T00:41:01.752Z,80.82
2023-02-07T00:43:32.454Z,80.52
2023-02-07T00:46:00.843Z,80.87
2023-02-07T00:48:29.467Z,80.83
2023-02-07T00:50:57.147Z,80.56
2023-02-07T00:53:24.649Z,79.95
2023-02-07T00:55:52.829Z,79.20
2023-02-07T00:58:19.954Z,78.73
2023-02-07T01:00:46.964Z,79.25
2023-02-07T01:03:14.021Z,78.45
2023-02-07T01:05:40.963Z,79.02
2023-02-07T01:08:08.920Z,79.16
2023-02-07T01:10:38.734Z,78.84
2023-02-07T01:13:05.682Z,79.71
2023-02-07T01:15:37.940Z,79.07
2023-02-07T01:18:06.361Z,80.47
2023-02-07T01:20:33.741Z,80.48
2023-02-07T01:23:00.656Z,79.94
2023-02-07T01:25:27.688Z,80.54
2023-02-07T01:27:55.708Z,79.36
2023-02-07T01:30:23.283Z,80.13
2023-02-07T01:32:50.960Z,78.72
2023-02-07T01:35:17.948Z,78.83
2023-02-07T01:37:44.841Z,79.11
2023-02-07T01:40:13.405Z,80.05
2023-02-07T01:42:40.380Z,80.76
2023-02-07T01:45:07.699Z,80.06
2023-02-07T01:47:36.920Z,79.56
2023-02-07T01:50:04.276Z,79.93
2023-02-07T01:52:36.653Z,79.93
2023-02-07T01:55:12.000Z,79.68
2023-02-07T01:57:40.191Z,79.34
2023-02-07T02:00:08.720Z,79.61
2023-02-07T02:02:41.475Z,79.50
2023-02-07T02:05:09.482Z,79.81
2023-02-07T02:07:38.023Z,79.89
2023-02-07T02:10:24.657Z,79.89
2023-02-07T02:13:03.590Z,79.90
2023-02-07T02:15:40.182Z,79.30
2023-02-07T02:18:22.330Z,80.86
2023-02-07T02:21:07.468Z,80.40
2023-02-07T02:23:40.268Z,80.32
2023-02-07T02:26:23.830Z,80.05
2023-02-07T02:28:56.722Z,79.59
2023-02-07T02:31:42.006Z,80.36
2023-02-07T02:34:17.047Z,80.10
2023-02-07T02:37:10.374Z,80.12
2023-02-07T02:39:57.976Z,80.58
2023-02-07T02:42:50.610Z,80.00
2023-02-07T02:45:27.384Z,79.37
2023-02-07T02:47:55.772Z,80.37
2023-02-07T02:50:27.609Z,79.83
2023-02-07T02:52:55.237Z,79.91
2023-02-07T02:55:40.812Z,79.44
2023-02-07T02:58:46.378Z,79.18
2023-02-07T03:01:36.741Z,80.26
2023-02-07T03:04:43.959Z,79.42
2023-02-07T03:07:41.282Z,79.42
2023-02-07T03:10:24.576Z,79.26
2023-02-07T03:27:56.252Z,80.25
2023-02-07T03:30:26.524Z,80.46
2023-02-07T03:32:58.342Z,79.90
2023-02-07T03:35:31.439Z,79.19
2023-02-07T03:38:00.805Z,79.33
2023-02-07T03:40:30.777Z,78.80
2023-02-07T03:43:06.711Z,78.70
2023-02-07T03:45:34.000Z,78.63
2023-02-07T03:48:00.950Z,78.69
2023-02-07T03:50:27.859Z,77.90
2023-02-07T03:52:54.833Z,78.08
2023-02-07T03:55:21.686Z,77.81
2023-02-07T03:57:48.479Z,77.24
2023-02-07T04:00:15.891Z,78.15
2023-02-07T04:02:43.335Z,77.29
2023-02-07T04:05:10.191Z,77.64
2023-02-07T04:07:37.391Z,78.03
2023-02-07T04:10:05.840Z,77.23
2023-02-07T04:12:32.929Z,77.92
2023-02-07T04:15:03.771Z,77.25
2023-02-07T04:17:31.497Z,77.38
2023-02-07T04:19:59.053Z,77.58
2023-02-07T04:22:25.910Z,77.19
2023-02-07T04:24:52.699Z,77.46
2023-02-07T04:27:19.901Z,77.02
2023-02-07T04:29:46.683Z,77.26
2023-02-07T04:32:13.729Z,77.43
2023-02-07T04:34:40.573Z,76.32
2023-02-07T04:37:07.642Z,77.37
2023-02-07T04:39:34.620Z,77.05
2023-02-07T04:42:01.548Z,77.03
2023-02-07T04:44:28.557Z,77.05
2023-02-07T04:46:55.412Z,76.92
2023-02-07T04:49:22.428Z,77.45
2023-02-07T04:51:49.296Z,76.71
2023-02-07T04:54:17.369Z,77.01
2023-02-07T04:56:44.221Z,77.13
2023-02-07T04:59:11.068Z,77.04
2023-02-07T05:01:37.923Z,76.91
2023-02-07T05:04:05.853Z,76.73
2023-02-07T05:06:32.702Z,76.66
2023-02-07T05:08:59.574Z,76.49
2023-02-07T05:11:26.446Z,76.92
2023-02-07T05:13:53.362Z,76.95
2023-02-07T05:16:20.261Z,77.10
2023-02-07T05:18:47.215Z,77.30
2023-02-07T05:21:14.265Z,77.15
2023-02-07T05:23:41.095Z,76.97
2023-02-07T05:26:10.639Z,77.21
2023-02-07T05:28:37.472Z,76.81
2023-02-07T05:31:04.589Z,77.40
2023-02-07T05:33:31.483Z,77.12
2023-02-07T05:36:01.685Z,76.08
2023-02-07T05:38:29.224Z,76.05
2023-02-07T05:40:56.196Z,76.22
2023-02-07T05:43:23.686Z,75.87
2023-02-07T05:45:50.535Z,75.83
2023-02-07T05:48:17.541Z,74.62
2023-02-07T05:50:44.487Z,74.66
2023-02-07T05:53:11.495Z,74.82
2023-02-07T05:55:38.733Z,75.23
2023-02-07T05:58:06.050Z,75.15
2023-02-07T06:00:32.991Z,74.71
2023-02-07T06:02:59.942Z,74.91
2023-02-07T06:05:31.778Z,74.03
2023-02-07T06:07:59.595Z,73.94
2023-02-07T06:10:26.411Z,72.79
2023-02-07T06:12:53.331Z,70.18
2023-02-07T06:15:20.354Z,69.85
2023-02-07T06:17:47.856Z,67.43
2023-02-07T06:20:15.275Z,67.80
2023-02-07T06:22:42.283Z,65.98
2023-02-07T06:25:12.394Z,64.77
2023-02-07T06:27:40.639Z,65.63
2023-02-07T06:30:10.213Z,62.54
2023-02-07T06:32:37.124Z,64.36
2023-02-07T06:35:05.803Z,61.92
2023-02-07T06:37:32.844Z,62.40
2023-02-07T06:39:59.717Z,62.21
2023-02-07T06:42:26.915Z,59.96
2023-02-07T06:44:53.715Z,61.47
2023-02-07T06:47:20.910Z,58.97
2023-02-07T06:49:47.903Z,59.93
2023-02-07T06:52:15.126Z,59.40
2023-02-07T06:54:42.221Z,58.17
2023-02-07T06:57:09.168Z,59.12
2023-02-07T06:59:36.288Z,54.95
2023-02-07T07:02:03.767Z,55.59
2023-02-07T07:04:31.386Z,55.42
2023-02-07T07:06:58.682Z,54.55
2023-02-07T07:09:26.424Z,56.05
2023-02-07T07:11:53.337Z,53.32
2023-02-07T07:14:20.366Z,56.28
2023-02-07T07:16:47.282Z,55.08
2023-02-07T07:19:14.280Z,53.84
2023-02-07T07:21:41.199Z,56.56
2023-02-07T07:24:08.338Z,53.35
2023-02-07T07:26:48.485Z,56.96
2023-02-07T07:29:20.019Z,57.37
2023-02-07T07:31:47.065Z,57.29
2023-02-07T07:34:14.198Z,54.28
2023-02-07T07:36:41.158Z,50.20
2023-02-07T07:39:09.229Z,53.29
2023-02-07T07:41:36.302Z,50.91
2023-02-07T07:44:03.513Z,52.71
2023-02-07T07:46:30.446Z,51.34
2023-02-07T07:48:57.578Z,49.88
2023-02-07T07:51:24.480Z,51.71
2023-02-07T07:53:51.391Z,47.76
2023-02-07T07:56:18.227Z,48.62
2023-02-07T07:58:45.058Z,48.29
2023-02-07T08:01:12.019Z,45.25
2023-02-07T08:03:39.090Z,48.59
2023-02-07T08:06:06.445Z,45.80
2023-02-07T08:08:33.628Z,48.28
2023-02-07T08:11:06.164Z,47.03
2023-02-07T08:13:33.457Z,43.81
2023-02-07T08:16:01.719Z,47.42
2023-02-07T08:18:29.758Z,46.00
2023-02-07T08:20:56.721Z,46.10
2023-02-07T08:23:23.662Z,46.01
2023-02-07T08:25:50.710Z,42.47
2023-02-07T08:28:18.449Z,45.55
2023-02-07T08:30:47.718Z,44.09
2023-02-07T08:33:15.736Z,40.56
2023-02-07T08:35:42.970Z,44.18
2023-02-07T08:38:09.989Z,42.34
2023-02-07T08:40:38.195Z,42.45
2023-02-07T08:43:07.349Z,44.29
2023-02-07T08:45:34.388Z,41.84
2023-02-07T08:48:01.429Z,44.86
2023-02-07T08:50:28.313Z,44.54
2023-02-07T08:52:55.161Z,43.07
2023-02-07T08:55:22.070Z,44.46
2023-02-07T08:57:48.953Z,42.06
2023-02-07T09:00:16.681Z,45.82
2023-02-07T09:02:43.887Z,43.37
2023-02-07T09:05:11.952Z,40.47
2023-02-07T09:07:39.014Z,43.07
2023-02-07T09:10:08.861Z,40.65
2023-02-07T09:12:36.709Z,42.57
2023-02-07T09:15:05.991Z,43.46
2023-02-07T09:17:32.884Z,38.76
2023-02-07T09:19:59.893Z,41.53
2023-02-07T09:22:26.878Z,39.96
2023-02-07T09:24:53.726Z,35.51
2023-02-07T09:27:20.587Z,39.69
2023-02-07T09:29:47.473Z,40.63
2023-02-07T09:32:14.321Z,44.17
2023-02-07T09:34:41.323Z,46.48
2023-02-07T09:37:08.286Z,44.20
2023-02-07T09:39:37.089Z,46.25
2023-02-07T09:42:28.958Z,46.17
2023-02-07T09:45:12.223Z,50.78
2023-02-07T09:47:44.529Z,52.30
2023-02-07T09:50:23.114Z,51.46
2023-02-07T09:52:56.028Z,52.76
2023-02-07T09:55:26.915Z,51.46
2023-02-07T09:58:02.628Z,52.64
2023-02-07T10:00:37.559Z,50.57
2023-02-07T10:03:23.182Z,51.46
2023-02-07T10:06:17.424Z,51.36
2023-02-07T10:08:48.690Z,49.30
2023-02-07T10:11:37.328Z,47.89
2023-02-07T10:14:07.375Z,43.26
2023-02-07T10:17:03.557Z,41.61
2023-02-07T10:19:45.332Z,39.29
2023-02-07T10:22:17.550Z,44.10
2023-02-07T10:24:54.649Z,39.00
2023-02-07T10:27:37.511Z,39.63
2023-02-07T10:30:20.400Z,38.88
2023-02-07T10:32:47.735Z,40.19
2023-02-07T10:35:16.725Z,39.72
2023-02-07T10:37:45.496Z,35.88
2023-02-07T10:40:29.328Z,38.88
2023-02-07T10:43:04.098Z,35.96
2023-02-07T10:45:31.361Z,41.35
2023-02-07T10:47:58.427Z,43.15
2023-02-07T10:50:30.238Z,40.78
2023-02-07T10:52:58.701Z,40.76
2023-02-07T10:55:46.378Z,38.46
2023-02-07T10:58:23.924Z,43.35
2023-02-07T11:00:55.370Z,40.87
2023-02-07T11:03:26.461Z,42.38
2023-02-07T11:06:02.894Z,45.72
2023-02-07T11:08:35.029Z,45.81
2023-02-07T11:11:20.573Z,42.48
2023-02-07T11:13:52.424Z,39.16
2023-02-07T11:16:22.001Z,41.16
2023-02-07T11:18:59.737Z,39.88
2023-02-07T11:21:43.689Z,41.71
2023-02-07T11:24:15.627Z,38.09
2023-02-07T11:27:05.853Z,39.40
2023-02-07T11:29:39.036Z,38.88
2023-02-07T11:32:06.460Z,37.27
2023-02-07T11:34:46.001Z,39.95
2023-02-07T11:37:32.482Z,35.93
2023-02-07T11:40:24.103Z,40.84
2023-02-07T11:43:01.597Z,40.96
2023-02-07T11:45:29.285Z,41.70
2023-02-07T11:47:58.103Z,43.91
2023-02-07T11:50:36.720Z,44.04
2023-02-07T11:53:03.847Z,47.04
2023-02-07T11:55:40.043Z,46.49
2023-02-07T11:58:42.105Z,46.20
2023-02-07T12:01:09.145Z,44.05
2023-02-07T12:03:47.117Z,42.44
2023-02-07T12:06:18.194Z,44.31
2023-02-07T12:08:45.926Z,41.51
2023-02-07T12:11:15.213Z,46.93
2023-02-07T12:13:44.464Z,47.78
2023-02-07T12:16:26.773Z,48.77
2023-02-07T12:19:00.215Z,45.94
2023-02-07T12:21:35.050Z,45.58
2023-02-07T12:24:12.301Z,47.80
2023-02-07T12:26:52.001Z,45.20
2023-02-07T12:29:47.697Z,48.90
2023-02-07T12:32:36.136Z,48.41
2023-02-07T12:35:21.953Z,51.43
2023-02-07T12:38:28.562Z,53.37
2023-02-07T12:41:02.925Z,54.99
2023-02-07T12:43:37.960Z,56.02
2023-02-07T12:46:47.185Z,56.68
2023-02-07T12:49:29.113Z,57.55
2023-02-07T12:52:26.913Z,57.60
2023-02-07T12:55:24.820Z,59.10
2023-02-07T12:58:08.856Z,58.96
2023-02-07T13:00:57.326Z,59.56
2023-02-07T13:03:36.360Z,59.00
2023-02-07T13:06:32.074Z,61.04
2023-02-07T13:09:10.147Z,60.37
2023-02-07T13:12:00.848Z,61.64
2023-02-07T13:14:45.714Z,62.25
2023-02-07T13:17:12.887Z,63.28
2023-02-07T13:19:49.349Z,64.17
2023-02-07T13:22:36.663Z,64.39
2023-02-07T13:25:09.540Z,64.30
2023-02-07T13:27:37.077Z,64.08
2023-02-07T13:30:04.254Z,64.34
2023-02-07T13:32:31.129Z,63.94
2023-02-07T13:35:08.095Z,64.79
2023-02-07T13:37:59.274Z,65.09
2023-02-07T13:40:50.378Z,65.57
2023-02-07T13:43:43.825Z,66.60
2023-02-07T13:46:47.546Z,66.65
2023-02-07T13:49:22.914Z,68.23
2023-02-07T13:52:10.943Z,67.09
2023-02-07T13:55:01.679Z,67.42
2023-02-07T13:57:52.871Z,66.59
2023-02-07T14:00:26.796Z,67.73
2023-02-07T14:03:03.668Z,67.14
2023-02-07T14:05:42.714Z,68.60
2023-02-07T14:08:15.647Z,67.54
2023-02-07T14:10:48.641Z,68.32
2023-02-07T14:13:27.344Z,68.60
2023-02-07T14:16:25.210Z,68.04
2023-02-07T14:18:52.872Z,68.78
2023-02-07T14:21:22.296Z,69.36
2023-02-07T14:24:01.120Z,70.10
2023-02-07T14:26:40.278Z,69.94
2023-02-07T14:29:25.402Z,70.47
2023-02-07T14:32:01.308Z,70.33
2023-02-07T14:34:52.614Z,70.64
2023-02-07T14:37:24.565Z,70.99
2023-02-07T14:39:51.591Z,71.36
2023-02-07T14:42:22.025Z,71.78
2023-02-07T14:44:51.088Z,70.97
2023-02-07T14:47:29.696Z,71.68
2023-02-07T14:50:00.419Z,72.52
2023-02-07T14:52:31.135Z,71.87
2023-02-07T14:55:02.742Z,72.04
2023-02-07T14:57:38.367Z,71.19
2023-02-07T15:00:14.445Z,71.42
2023-02-07T15:02:51.341Z,71.22
2023-02-07T15:05:34.520Z,72.33
2023-02-07T15:08:04.084Z,72.22
2023-02-07T15:10:45.412Z,72.37
2023-02-07T15:13:24.752Z,72.65
2023-02-07T15:15:55.809Z,72.36
2023-02-07T15:30:00.288Z,74.08
2023-02-07T15:32:30.998Z,73.97
2023-02-07T15:34:58.781Z,74.24
2023-02-07T15:37:27.728Z,74.28
2023-02-07T15:39:57.016Z,75.07
2023-02-07T15:42:24.375Z,74.70
2023-02-07T15:44:54.377Z,74.50
2023-02-07T15:47:34.060Z,75.44
2023-02-07T15:50:24.020Z,76.22
2023-02-07T15:52:56.670Z,75.84
2023-02-07T15:55:31.202Z,76.54
2023-02-07T15:57:58.157Z,76.25
2023-02-07T16:00:29.458Z,77.04
2023-02-07T16:03:00.222Z,77.97
2023-02-07T16:05:31.319Z,76.81
2023-02-07T16:07:59.738Z,76.94
2023-02-07T16:10:29.532Z,77.09
2023-02-07T16:13:07.083Z,76.94
2023-02-07T16:15:37.630Z,77.26
2023-02-07T16:18:06.227Z,76.80
2023-02-07T16:20:36.357Z,76.72
2023-02-07T16:23:07.039Z,76.53
2023-02-07T16:25:36.488Z,79.00
2023-02-07T16:28:10.199Z,76.17
2023-02-07T16:30:38.430Z,76.22
2023-02-07T16:33:12.807Z,75.58
2023-02-07T16:35:39.641Z,77.16
2023-02-07T16:38:06.442Z,76.69
2023-02-07T16:40:33.453Z,76.18
2023-02-07T16:43:02.637Z,76.55
2023-02-07T16:45:30.057Z,74.98
2023-02-07T16:47:59.018Z,75.22
2023-02-07T16:50:30.762Z,74.60
2023-02-07T16:52:59.543Z,73.99
2023-02-07T16:55:27.959Z,75.28
2023-02-07T16:57:56.498Z,73.92
2023-02-07T17:00:26.199Z,74.60
2023-02-07T17:02:53.731Z,73.92
2023-02-07T17:05:24.155Z,74.32
2023-02-07T17:07:51.466Z,75.47
2023-02-07T17:10:21.237Z,75.27
2023-02-07T17:12:48.409Z,75.58
2023-02-07T17:15:15.641Z,75.50
2023-02-07T17:17:42.657Z,75.81
2023-02-07T17:20:29.659Z,76.61
2023-02-07T17:22:56.949Z,76.40
2023-02-07T17:25:27.446Z,78.06
2023-02-07T17:27:54.537Z,77.11
2023-02-07T17:30:33.266Z,78.20
2023-02-07T17:33:00.101Z,77.16
2023-02-07T17:35:26.995Z,78.58
2023-02-07T17:37:53.947Z,79.65
2023-02-07T17:40:26.949Z,78.56
2023-02-07T17:42:54.625Z,79.50
2023-02-07T17:45:21.622Z,79.18
2023-02-07T17:47:48.977Z,80.42
2023-02-07T17:50:22.239Z,80.96
2023-02-07T17:52:49.459Z,80.14
2023-02-07T17:55:17.236Z,80.64
2023-02-07T17:57:44.703Z,79.67
2023-02-07T18:00:17.048Z,80.08
2023-02-07T18:02:46.607Z,81.19
2023-02-07T18:05:16.006Z,80.09
2023-02-07T18:07:44.594Z,81.06
2023-02-07T18:10:16.824Z,79.52
2023-02-07T18:12:43.961Z,80.76
2023-02-07T18:15:11.178Z,80.48
2023-02-07T18:17:38.826Z,80.94
2023-02-07T18:20:09.375Z,80.44
2023-02-07T18:22:36.234Z,80.31
2023-02-07T18:25:03.196Z,81.42
2023-02-07T18:27:31.075Z,80.49
2023-02-07T18:29:57.927Z,81.70
2023-02-07T18:32:24.883Z,82.09
2023-02-07T18:34:51.834Z,81.90
2023-02-07T18:37:19.047Z,82.04
2023-02-07T18:39:45.901Z,82.15
2023-02-07T18:42:17.545Z,82.23
2023-02-07T18:44:45.280Z,82.74
2023-02-07T18:47:12.297Z,82.70
2023-02-07T18:49:39.274Z,83.96
2023-02-07T18:52:07.020Z,83.63
2023-02-07T18:54:34.239Z,83.55
2023-02-07T18:57:01.098Z,83.36
2023-02-07T18:59:28.235Z,83.37
2023-02-07T19:01:55.344Z,83.74
2023-02-07T19:04:22.834Z,83.02
2023-02-07T19:06:51.765Z,82.39
2023-02-07T19:09:21.099Z,82.33
2023-02-07T19:11:51.471Z,82.47
2023-02-07T19:14:27.380Z,83.30
2023-02-07T19:16:56.007Z,81.61
2023-02-07T19:19:29.589Z,81.71
2023-02-07T19:21:57.273Z,80.96
2023-02-07T19:24:24.861Z,81.12
2023-02-07T19:26:55.129Z,81.28
2023-02-07T19:29:28.711Z,80.93
2023-02-07T19:32:08.379Z,80.69
2023-02-07T19:34:37.678Z,80.32
2023-02-07T19:37:04.679Z,81.27
2023-02-07T19:39:31.604Z,80.06
2023-02-07T19:41:58.491Z,80.79
2023-02-07T19:44:25.367Z,80.28
2023-02-07T19:46:52.354Z,80.01
2023-02-07T19:49:19.277Z,80.00
2023-02-07T19:51:46.236Z,80.39
2023-02-07T19:54:13.089Z,80.39
2023-02-07T19:56:42.409Z,79.79
2023-02-07T19:59:10.730Z,79.70
2023-02-07T20:01:38.190Z,81.27
2023-02-07T20:04:05.999Z,79.35
2023-02-07T20:06:34.481Z,80.81
2023-02-07T20:09:04.762Z,79.76
2023-02-07T20:11:31.665Z,80.43
2023-02-07T20:14:03.715Z,80.63
2023-02-07T20:16:33.815Z,80.35
2023-02-07T20:19:01.724Z,81.17
2023-02-07T20:21:30.656Z,79.72
2023-02-07T20:23:58.072Z,80.55
2023-02-07T20:26:31.839Z,80.16
2023-02-07T20:29:01.014Z,79.18
2023-02-07T20:31:29.216Z,79.25
2023-02-07T20:33:57.644Z,78.24
2023-02-07T20:36:26.106Z,79.63
2023-02-07T20:38:53.184Z,79.64
2023-02-07T20:41:32.047Z,79.52
2023-02-07T20:44:04.897Z,80.67
2023-02-07T20:46:34.951Z,79.47
2023-02-07T20:49:07.851Z,79.95
2023-02-07T20:51:35.556Z,78.67
2023-02-07T20:54:05.201Z,79.65
2023-02-07T20:56:33.681Z,79.43
2023-02-07T20:59:00.630Z,80.29
2023-02-07T21:01:29.319Z,80.68
2023-02-07T21:03:58.989Z,80.67
2023-02-07T21:06:27.071Z,80.05
2023-02-07T21:09:00.506Z,79.91
2023-02-07T21:11:33.968Z,80.11
2023-02-07T21:14:01.990Z,81.50
2023-02-07T21:16:30.987Z,80.42
2023-02-07T21:18:58.367Z,80.74
2023-02-07T21:21:25.649Z,80.05
2023-02-07T21:23:52.667Z,80.39
2023-02-07T21:26:19.885Z,80.04
2023-02-07T21:28:47.178Z,79.45
2023-02-07T21:31:20.074Z,80.51
2023-02-07T21:33:49.750Z,79.32
2023-02-07T21:36:20.130Z,79.88
2023-02-07T21:38:48.508Z,79.26
2023-02-07T21:41:17.891Z,79.13
2023-02-07T21:43:44.663Z,79.46
2023-02-07T21:46:12.872Z,79.08
2023-02-07T21:48:40.265Z,79.76
2023-02-07T21:51:10.365Z,79.07
2023-02-07T21:53:38.408Z,79.97
2023-02-07T21:56:13.048Z,80.35
2023-02-07T21:58:40.932Z,79.32
2023-02-07T22:01:19.603Z,80.39
2023-02-07T22:03:49.148Z,79.62
2023-02-07T22:06:17.613Z,79.46
2023-02-07T22:08:50.136Z,80.03
2023-02-07T22:11:18.522Z,78.07
2023-02-07T22:13:45.837Z,78.56
2023-02-07T22:16:15.824Z,78.32
2023-02-07T22:18:43.613Z,79.38
2023-02-07T22:21:15.348Z,78.65
2023-02-07T22:23:42.863Z,78.91
2023-02-07T22:26:10.327Z,79.75
2023-02-07T22:28:39.097Z,78.45
2023-02-07T22:31:15.062Z,79.32
2023-02-07T22:33:42.347Z,78.41
2023-02-07T22:36:26.783Z,78.93
2023-02-07T22:38:53.973Z,79.15
2023-02-07T22:41:21.670Z,79.54
2023-02-07T22:43:48.812Z,80.14
2023-02-07T22:46:18.672Z,79.69
2023-02-07T22:48:46.206Z,80.53
2023-02-07T22:51:27.312Z,80.04
2023-02-07T22:53:58.094Z,80.66
2023-02-07T22:56:25.880Z,80.09
2023-02-07T22:58:53.979Z,79.94
2023-02-07T23:01:34.495Z,78.61
2023-02-07T23:04:02.798Z,78.30
2023-02-07T23:06:32.540Z,76.97
2023-02-07T23:09:01.058Z,76.88
2023-02-07T23:11:28.208Z,77.32
2023-02-07T23:13:55.378Z,77.68
2023-02-07T23:16:25.385Z,78.05
2023-02-07T23:18:56.448Z,78.31
2023-02-07T23:21:25.364Z,79.16
2023-02-07T23:23:52.673Z,79.23
2023-02-07T23:26:21.786Z,79.42
2023-02-07T23:28:49.316Z,79.87
2023-02-07T23:31:17.790Z,80.01
2023-02-07T23:33:44.948Z,79.21
2023-02-07T23:36:12.574Z,79.20
2023-02-07T23:38:40.008Z,79.09
2023-02-07T23:41:07.599Z,78.77
2023-02-07T23:43:36.334Z,79.28
2023-02-07T23:46:04.217Z,79.03
2023-02-07T23:48:34.506Z,79.57
2023-02-07T23:51:03.856Z,79.64
2023-02-07T23:53:31.331Z,80.04
2023-02-07T23:55:58.782Z,79.63
2023-02-07T23:58:27.373Z,79.28
